createdAt,value
2018-06-25T00:02:51.433Z,12.51
2018-06-25T00:05:56.601Z,12.56
2018-06-25T00:09:02.029Z,12.57
2018-06-25T00:12:07.721Z,12.57
2018-06-25T00:15:13.966Z,12.58
2018-06-25T00:18:20.129Z,12.62
2018-06-25T00:21:25.468Z,12.64
2018-06-25T00:24:31.306Z,12.71
2018-06-25T00:27:37.037Z,12.68
2018-06-25T00:30:43.133Z,12.70
2018-06-25T00:33:48.249Z,12.69
2018-06-25T00:36:54.362Z,12.69
2018-06-25T00:40:00.289Z,12.71
2018-06-25T00:43:05.732Z,12.76
2018-06-25T00:46:12.436Z,12.80
2018-06-25T00:49:19.245Z,12.78
2018-06-25T00:52:25.369Z,12.83
2018-06-25T00:55:31.212Z,12.86
2018-06-25T00:58:47.987Z,12.89
2018-06-25T01:01:53.406Z,12.92
2018-06-25T01:04:59.545Z,12.92
2018-06-25T01:08:04.793Z,12.93
2018-06-25T01:11:11.470Z,12.93
2018-06-25T01:14:17.509Z,12.93
2018-06-25T01:17:23.632Z,12.88
2018-06-25T01:20:31.180Z,12.84
2018-06-25T01:23:35.997Z,12.79
2018-06-25T01:26:42.417Z,12.78
2018-06-25T01:29:49.510Z,12.78
2018-06-25T01:32:55.424Z,12.74
2018-06-25T01:36:00.869Z,12.76
2018-06-25T01:39:08.737Z,12.72
2018-06-25T01:42:13.825Z,12.72
2018-06-25T01:45:19.391Z,12.73
2018-06-25T01:48:24.707Z,12.72
2018-06-25T01:51:29.843Z,12.75
2018-06-25T01:54:34.981Z,12.75
2018-06-25T01:57:41.952Z,12.76
2018-06-25T02:00:48.109Z,12.77
2018-06-25T02:03:54.739Z,12.79
2018-06-25T02:07:00.482Z,12.82
2018-06-25T02:10:05.391Z,12.78
2018-06-25T02:13:10.546Z,12.79
2018-06-25T02:16:16.087Z,12.78
2018-06-25T02:19:21.776Z,12.80
2018-06-25T02:22:27.838Z,12.82
2018-06-25T02:25:33.588Z,12.82
2018-06-25T02:28:38.733Z,12.90
2018-06-25T02:31:43.854Z,12.92
2018-06-25T02:34:49.076Z,12.92
2018-06-25T02:37:53.926Z,12.95
2018-06-25T02:40:59.896Z,12.98
2018-06-25T02:44:06.378Z,12.96
2018-06-25T02:47:12.508Z,12.98
2018-06-25T02:50:18.551Z,12.99
2018-06-25T02:53:23.686Z,13.00
2018-06-25T02:56:29.758Z,12.99
2018-06-25T02:59:34.923Z,13.02
2018-06-25T03:02:40.094Z,13.02
2018-06-25T03:05:45.354Z,13.01
2018-06-25T03:08:50.479Z,13.03
2018-06-25T03:11:56.134Z,13.03
2018-06-25T03:15:02.093Z,13.05
2018-06-25T03:18:07.608Z,13.05
2018-06-25T03:21:12.448Z,13.06
2018-06-25T03:24:18.326Z,13.08
2018-06-25T03:27:24.807Z,13.10
2018-06-25T03:30:30.856Z,13.11
2018-06-25T03:33:36.963Z,13.12
2018-06-25T03:36:42.112Z,13.12
2018-06-25T03:39:47.261Z,13.12
2018-06-25T03:42:53.390Z,13.13
2018-06-25T03:45:59.326Z,13.14
2018-06-25T03:49:04.780Z,13.18
2018-06-25T03:52:10.561Z,13.19
2018-06-25T03:55:17.053Z,13.22
2018-06-25T03:58:23.762Z,13.23
2018-06-25T04:01:28.975Z,13.24
2018-06-25T04:04:39.890Z,13.28
2018-06-25T04:08:03.570Z,13.29
2018-06-25T04:11:08.970Z,13.31
2018-06-25T04:14:14.147Z,13.35
2018-06-25T04:17:19.870Z,13.36
2018-06-25T04:20:26.266Z,13.38
2018-06-25T04:23:33.207Z,13.41
2018-06-25T04:26:38.987Z,13.44
2018-06-25T04:29:44.158Z,13.48
2018-06-25T04:32:49.857Z,13.51
2018-06-25T04:35:54.989Z,13.53
2018-06-25T04:39:00.196Z,13.54
2018-06-25T04:42:05.446Z,13.57
2018-06-25T04:45:10.769Z,13.58
2018-06-25T04:48:16.857Z,13.61
2018-06-25T04:51:23.447Z,13.62
2018-06-25T04:54:28.302Z,13.64
2018-06-25T04:57:34.926Z,13.66
2018-06-25T05:00:40.081Z,13.70
2018-06-25T05:03:45.462Z,13.71
2018-06-25T05:06:51.418Z,13.73
2018-06-25T05:09:57.553Z,13.74
2018-06-25T05:13:03.559Z,13.76
2018-06-25T05:16:08.703Z,13.79
2018-06-25T05:19:14.877Z,13.80
2018-06-25T05:22:20.425Z,13.82
2018-06-25T05:25:26.542Z,13.85
2018-06-25T05:28:32.882Z,13.86
2018-06-25T05:31:40.024Z,13.89
2018-06-25T05:34:45.626Z,13.91
2018-06-25T05:37:51.453Z,13.95
2018-06-25T05:40:57.101Z,13.95
2018-06-25T05:44:02.246Z,13.97
2018-06-25T05:47:07.821Z,14.02
2018-06-25T05:50:13.310Z,14.04
2018-06-25T05:53:18.495Z,14.06
2018-06-25T05:56:23.898Z,14.08
2018-06-25T05:59:29.534Z,14.10
2018-06-25T06:02:35.678Z,14.14
2018-06-25T06:05:41.031Z,14.16
2018-06-25T06:08:46.566Z,14.19
2018-06-25T06:11:52.706Z,14.22
2018-06-25T06:14:58.485Z,14.25
2018-06-25T06:18:03.857Z,14.29
2018-06-25T06:21:09.495Z,14.31
2018-06-25T06:24:15.377Z,14.35
2018-06-25T06:27:21.693Z,14.36
2018-06-25T06:30:26.834Z,14.40
2018-06-25T06:33:32.994Z,14.41
2018-06-25T06:36:38.338Z,14.46
2018-06-25T06:39:44.431Z,14.47
2018-06-25T06:42:50.757Z,14.48
2018-06-25T06:45:55.918Z,14.51
2018-06-25T06:49:01.565Z,14.55
2018-06-25T06:52:07.638Z,14.58
2018-06-25T06:55:13.205Z,14.63
2018-06-25T06:58:18.330Z,14.67
2018-06-25T07:01:23.663Z,14.72
2018-06-25T07:04:28.793Z,14.75
2018-06-25T07:07:35.563Z,14.81
2018-06-25T07:10:41.349Z,14.87
2018-06-25T07:13:46.487Z,14.93
2018-06-25T07:16:52.635Z,14.96
2018-06-25T07:19:58.411Z,15.01
2018-06-25T07:23:03.963Z,15.05
2018-06-25T07:26:09.963Z,15.11
2018-06-25T07:29:16.361Z,15.15
2018-06-25T07:32:22.901Z,15.20
2018-06-25T07:35:28.730Z,15.25
2018-06-25T07:38:34.206Z,15.30
2018-06-25T07:41:39.636Z,15.35
2018-06-25T07:44:46.609Z,15.39
2018-06-25T07:47:52.168Z,15.44
2018-06-25T07:50:57.312Z,15.49
2018-06-25T07:54:02.371Z,15.52
2018-06-25T07:57:08.548Z,15.56
2018-06-25T08:00:14.309Z,15.60
2018-06-25T08:03:20.507Z,15.62
2018-06-25T08:06:26.603Z,15.66
2018-06-25T08:09:31.758Z,15.67
2018-06-25T08:12:37.629Z,15.68
2018-06-25T08:15:43.498Z,15.71
2018-06-25T08:18:49.239Z,15.71
2018-06-25T08:21:55.846Z,15.71
2018-06-25T08:25:01.514Z,15.71
2018-06-25T08:28:07.400Z,15.71
2018-06-25T08:31:14.421Z,15.73
2018-06-25T08:34:20.987Z,15.72
2018-06-25T08:37:27.441Z,15.74
2018-06-25T08:40:33.126Z,15.75
2018-06-25T08:43:38.578Z,15.75
2018-06-25T08:46:44.635Z,15.74
2018-06-25T08:49:50.011Z,15.76
2018-06-25T08:52:56.850Z,15.77
2018-06-25T08:56:03.037Z,15.77
2018-06-25T08:59:09.342Z,15.78
2018-06-25T09:02:15.444Z,15.80
2018-06-25T09:05:20.611Z,15.82
2018-06-25T09:08:26.417Z,15.82
2018-06-25T09:11:31.556Z,15.84
2018-06-25T09:14:37.018Z,15.86
2018-06-25T09:17:42.510Z,15.87
2018-06-25T09:20:48.931Z,15.89
2018-06-25T09:23:54.599Z,15.90
2018-06-25T09:26:59.469Z,15.94
2018-06-25T09:30:05.739Z,15.96
2018-06-25T09:33:10.899Z,15.97
2018-06-25T09:36:16.167Z,16.00
2018-06-25T09:39:22.182Z,16.01
2018-06-25T09:42:27.723Z,16.02
2018-06-25T09:45:32.850Z,16.04
2018-06-25T09:48:37.977Z,16.06
2018-06-25T09:51:43.102Z,16.07
2018-06-25T09:54:48.282Z,16.08
2018-06-25T09:57:54.515Z,16.11
2018-06-25T10:01:05.919Z,16.13
2018-06-25T10:04:11.058Z,16.14
2018-06-25T10:07:17.740Z,16.17
2018-06-25T10:10:23.760Z,16.20
2018-06-25T10:13:29.814Z,16.23
2018-06-25T10:16:35.153Z,16.24
2018-06-25T10:19:40.815Z,16.24
2018-06-25T10:22:45.960Z,16.28
2018-06-25T10:25:53.002Z,16.30
2018-06-25T10:28:58.356Z,16.31
2018-06-25T10:32:03.499Z,16.33
2018-06-25T10:35:09.439Z,16.34
2018-06-25T10:38:15.300Z,16.36
2018-06-25T10:41:22.602Z,16.38
2018-06-25T10:44:28.525Z,16.41
2018-06-25T10:47:33.670Z,16.42
2018-06-25T10:50:40.146Z,16.45
2018-06-25T10:53:45.341Z,16.49
2018-06-25T10:56:50.476Z,16.53
2018-06-25T10:59:56.740Z,16.54
2018-06-25T11:03:01.938Z,16.59
2018-06-25T11:06:09.260Z,16.63
2018-06-25T11:09:15.602Z,16.66
2018-06-25T11:12:22.010Z,16.69
2018-06-25T11:15:27.380Z,16.75
2018-06-25T11:18:33.530Z,16.80
2018-06-25T11:21:38.646Z,16.83
2018-06-25T11:24:43.843Z,16.88
2018-06-25T11:27:48.978Z,16.90
2018-06-25T11:30:54.609Z,16.94
2018-06-25T11:34:01.951Z,16.98
2018-06-25T11:37:07.119Z,17.03
2018-06-25T11:40:12.258Z,17.06
2018-06-25T11:43:18.334Z,17.11
2018-06-25T11:46:24.198Z,17.14
2018-06-25T11:49:29.362Z,17.18
2018-06-25T11:52:34.875Z,17.24
2018-06-25T11:55:40.917Z,17.30
2018-06-25T11:58:46.409Z,17.35
2018-06-25T12:01:52.482Z,17.42
2018-06-25T12:04:58.153Z,17.48
2018-06-25T12:08:04.511Z,17.56
2018-06-25T12:11:11.256Z,17.60
2018-06-25T12:14:17.195Z,17.67
2018-06-25T12:17:23.628Z,17.74
2018-06-25T12:20:29.486Z,17.79
2018-06-25T12:23:35.266Z,17.83
2018-06-25T12:26:40.878Z,17.88
2018-06-25T12:29:46.690Z,17.93
2018-06-25T12:32:52.545Z,17.97
2018-06-25T12:35:57.878Z,18.03
2018-06-25T12:39:04.952Z,18.08
2018-06-25T12:42:10.091Z,18.13
2018-06-25T12:45:15.631Z,18.17
2018-06-25T12:48:20.782Z,18.21
2018-06-25T12:51:27.356Z,18.24
2018-06-25T12:54:32.522Z,18.28
2018-06-25T12:57:37.654Z,18.29
2018-06-25T13:00:43.154Z,18.31
2018-06-25T13:03:48.290Z,18.33
2018-06-25T13:06:53.496Z,18.33
2018-06-25T13:09:58.798Z,18.37
2018-06-25T13:13:03.985Z,18.39
2018-06-25T13:16:09.144Z,18.40
2018-06-25T13:19:15.066Z,18.45
2018-06-25T13:22:20.051Z,18.51
2018-06-25T13:25:26.606Z,18.54
2018-06-25T13:28:32.674Z,18.59
2018-06-25T13:31:38.729Z,18.64
2018-06-25T13:34:45.088Z,18.75
2018-06-25T13:37:51.486Z,18.83
2018-06-25T13:40:57.449Z,18.89
2018-06-25T13:44:02.952Z,18.97
2018-06-25T13:47:09.102Z,19.03
2018-06-25T13:50:14.258Z,19.11
2018-06-25T13:53:21.245Z,19.15
2018-06-25T13:56:28.570Z,19.25
2018-06-25T13:59:34.449Z,19.31
2018-06-25T14:02:40.115Z,19.41
2018-06-25T14:05:45.268Z,19.49
2018-06-25T14:08:50.414Z,19.59
2018-06-25T14:11:55.568Z,19.68
2018-06-25T14:15:01.040Z,19.75
2018-06-25T14:18:07.163Z,19.78
2018-06-25T14:21:13.286Z,19.79
2018-06-25T14:24:24.546Z,19.78
2018-06-25T14:27:35.592Z,19.77
2018-06-25T14:30:46.576Z,19.75
2018-06-25T14:33:58.133Z,19.70
2018-06-25T14:37:03.887Z,19.65
2018-06-25T14:40:10.373Z,19.58
2018-06-25T14:43:16.770Z,19.54
2018-06-25T14:46:22.633Z,19.46
2018-06-25T14:49:28.249Z,19.38
2018-06-25T14:52:34.389Z,19.33
2018-06-25T14:55:41.342Z,19.26
2018-06-25T14:58:47.206Z,19.20
2018-06-25T15:01:53.188Z,19.14
2018-06-25T15:04:58.325Z,19.07
2018-06-25T15:08:03.642Z,19.02
2018-06-25T15:11:08.767Z,18.93
2018-06-25T15:14:14.295Z,18.86
2018-06-25T15:17:19.534Z,18.80
2018-06-25T15:20:24.657Z,18.74
2018-06-25T15:23:30.942Z,18.68
2018-06-25T15:26:37.727Z,18.63
2018-06-25T15:29:44.781Z,18.57
2018-06-25T15:32:51.523Z,18.51
2018-06-25T15:35:57.495Z,18.43
2018-06-25T15:39:04.433Z,18.36
2018-06-25T15:42:09.619Z,18.32
2018-06-25T15:45:14.751Z,18.28
2018-06-25T15:48:19.876Z,18.22
2018-06-25T15:51:24.767Z,18.17
2018-06-25T15:54:30.345Z,18.13
2018-06-25T15:57:35.446Z,18.11
2018-06-25T16:00:40.626Z,18.04
2018-06-25T16:03:46.693Z,18.01
2018-06-25T16:06:51.915Z,17.97
2018-06-25T16:09:57.419Z,17.94
2018-06-25T16:13:03.565Z,17.89
2018-06-25T16:16:10.038Z,17.87
2018-06-25T16:19:15.229Z,17.81
2018-06-25T16:22:21.958Z,17.78
2018-06-25T16:25:27.105Z,17.73
2018-06-25T16:28:32.280Z,17.67
2018-06-25T16:31:38.846Z,17.63
2018-06-25T16:34:44.922Z,17.59
2018-06-25T16:37:51.022Z,17.56
2018-06-25T16:40:57.003Z,17.52
2018-06-25T16:44:03.001Z,17.49
2018-06-25T16:47:07.870Z,17.45
2018-06-25T16:50:13.604Z,17.43
2018-06-25T16:53:19.515Z,17.39
2018-06-25T16:56:25.223Z,17.34
2018-06-25T16:59:31.301Z,17.30
2018-06-25T17:02:36.695Z,17.28
2018-06-25T17:05:43.018Z,17.25
2018-06-25T17:08:48.944Z,17.23
2018-06-25T17:11:54.933Z,17.19
2018-06-25T17:15:01.270Z,17.17
2018-06-25T17:18:07.603Z,17.12
2018-06-25T17:21:12.771Z,17.10
2018-06-25T17:24:18.754Z,17.07
2018-06-25T17:27:25.075Z,17.04
2018-06-25T17:30:30.888Z,17.01
2018-06-25T17:33:37.641Z,16.99
2018-06-25T17:36:42.765Z,16.96
2018-06-25T17:39:48.466Z,16.94
2018-06-25T17:42:53.646Z,16.88
2018-06-25T17:45:59.802Z,16.86
2018-06-25T17:49:05.548Z,16.83
2018-06-25T17:52:11.373Z,16.79
2018-06-25T17:55:17.488Z,16.76
2018-06-25T17:58:23.464Z,16.73
2018-06-25T18:01:29.428Z,16.70
2018-06-25T18:04:35.515Z,16.67
2018-06-25T18:07:41.074Z,16.64
2018-06-25T18:10:46.858Z,16.61
2018-06-25T18:13:53.878Z,16.56
2018-06-25T18:16:59.977Z,16.53
2018-06-25T18:20:05.774Z,16.49
2018-06-25T18:23:11.669Z,16.47
2018-06-25T18:26:17.977Z,16.45
2018-06-25T18:29:24.114Z,16.42
2018-06-25T18:32:30.288Z,16.37
2018-06-25T18:35:36.239Z,16.34
2018-06-25T18:38:41.411Z,16.31
2018-06-25T18:41:46.902Z,16.27
2018-06-25T18:44:53.137Z,16.24
2018-06-25T18:47:59.207Z,16.20
2018-06-25T18:51:05.681Z,16.17
2018-06-25T18:54:11.502Z,16.12
2018-06-25T18:57:17.125Z,16.08
2018-06-25T19:00:22.965Z,16.05
2018-06-25T19:03:29.049Z,16.03
2018-06-25T19:06:35.076Z,16.00
2018-06-25T19:09:41.554Z,15.96
2018-06-25T19:12:46.858Z,15.93
2018-06-25T19:15:52.957Z,15.91
2018-06-25T19:18:59.087Z,15.86
2018-06-25T19:22:04.346Z,15.85
2018-06-25T19:25:10.549Z,15.82
2018-06-25T19:28:16.460Z,15.78
2018-06-25T19:31:21.998Z,15.74
2018-06-25T19:34:28.150Z,15.72
2018-06-25T19:37:33.711Z,15.70
2018-06-25T19:40:39.422Z,15.68
2018-06-25T19:43:45.047Z,15.65
2018-06-25T19:46:50.250Z,15.62
2018-06-25T19:49:56.259Z,15.61
2018-06-25T19:53:03.322Z,15.58
2018-06-25T19:56:09.062Z,15.57
2018-06-25T19:59:15.049Z,15.54
2018-06-25T20:02:34.585Z,15.52
2018-06-25T20:05:52.218Z,15.48
2018-06-25T20:09:14.880Z,15.46
2018-06-25T20:12:21.267Z,15.42
2018-06-25T20:15:27.376Z,15.39
2018-06-25T20:18:33.835Z,15.36
2018-06-25T20:21:38.974Z,15.34
2018-06-25T20:24:44.101Z,15.33
2018-06-25T20:27:49.191Z,15.30
2018-06-25T20:30:55.639Z,15.27
2018-06-25T20:34:01.819Z,15.26
2018-06-25T20:37:08.096Z,15.24
2018-06-25T20:40:13.762Z,15.23
2018-06-25T20:43:21.388Z,15.20
2018-06-25T20:46:26.503Z,15.18
2018-06-25T20:49:31.600Z,15.16
2018-06-25T20:52:37.578Z,15.15
2018-06-25T20:55:43.227Z,15.11
2018-06-25T20:58:48.087Z,15.09
2018-06-25T21:01:53.258Z,15.06
2018-06-25T21:04:58.994Z,15.04
2018-06-25T21:08:05.473Z,15.03
2018-06-25T21:11:11.114Z,15.01
2018-06-25T21:14:17.089Z,14.99
2018-06-25T21:17:23.163Z,14.97
2018-06-25T21:20:29.086Z,14.95
2018-06-25T21:23:34.755Z,14.95
2018-06-25T21:26:39.893Z,14.93
2018-06-25T21:29:45.003Z,14.92
2018-06-25T21:32:50.177Z,14.90
2018-06-25T21:35:55.750Z,14.89
2018-06-25T21:39:01.816Z,14.88
2018-06-25T21:42:07.605Z,14.86
2018-06-25T21:45:12.949Z,14.85
2018-06-25T21:48:18.994Z,14.82
2018-06-25T21:51:24.127Z,14.81
2018-06-25T21:54:29.226Z,14.81
2018-06-25T21:57:34.357Z,14.77
2018-06-25T22:00:46.086Z,14.75
2018-06-25T22:03:51.093Z,14.75
2018-06-25T22:06:58.037Z,14.73
2018-06-25T22:10:04.430Z,14.71
2018-06-25T22:13:09.787Z,14.72
2018-06-25T22:16:14.905Z,14.71
2018-06-25T22:19:20.908Z,14.69
2018-06-25T22:22:26.045Z,14.69
2018-06-25T22:25:31.306Z,14.68
2018-06-25T22:28:36.764Z,14.67
2018-06-25T22:31:41.883Z,14.66
2018-06-25T22:34:47.884Z,14.65
2018-06-25T22:37:53.002Z,14.65
2018-06-25T22:40:58.475Z,14.64
2018-06-25T22:44:09.783Z,14.63
2018-06-25T22:47:14.612Z,14.61
2018-06-25T22:50:20.251Z,14.60
2018-06-25T22:53:25.365Z,14.60
2018-06-25T22:56:30.694Z,14.58
2018-06-25T22:59:36.490Z,14.57
2018-06-25T23:02:42.541Z,14.56
2018-06-25T23:05:47.731Z,14.57
2018-06-25T23:08:52.838Z,14.53
2018-06-25T23:11:58.548Z,14.52
2018-06-25T23:15:04.470Z,14.51
2018-06-25T23:18:10.458Z,14.50
2018-06-25T23:21:15.850Z,14.49
2018-06-25T23:24:23.174Z,14.49
2018-06-25T23:27:28.261Z,14.48
2018-06-25T23:30:34.517Z,14.47
2018-06-25T23:33:40.122Z,14.48
2018-06-25T23:36:46.077Z,14.46
2018-06-25T23:39:52.555Z,14.46
2018-06-25T23:42:58.184Z,14.44
2018-06-25T23:46:04.024Z,14.45
2018-06-25T23:49:09.002Z,14.43
2018-06-25T23:52:14.638Z,14.42
2018-06-25T23:55:19.794Z,14.40
2018-06-25T23:58:24.911Z,14.41
